BON225 FAOR-EGCC
Flight info
| Callsign | BON225 |
|---|---|
| Flight time | N/A |
| Altitude | 32000 |
| Route | VASUR3B VASUR UZ21 ITROL UQ25 RUDAS UM731 DIR UB730 DJA UM2 TARAT UA605 RIMEL UR985 ELO DCT BIS DCT TAGRO DCT LUXUR M134 GENIO N859 MJV N861 CAVES M601 REBUL N863 GIROM DCT GONUP DCT TUPAR UN861 ANG DCT AKIKI UN867 AVANT UM184 HEMEL T420 ELVOS |
| Aircraft | A346/H-SDE2E3FGHIJ3J4J5M1RWXY/LB1D1 |
Departure
| Time | 2026-05-07 19:45 |
|---|---|
| Airport | O.R. Tambo International Airport (FAOR) |
Arrival
| Time | N/A |
|---|---|
| Airport | Manchester Airport (EGCC) |
| Time | Latitude | Longitude | Altitude | Speed | Heading |
|---|---|---|---|---|---|
| 2026-05-07 19:15 | -26.13030 | 28.23468 | 5555 ft | 0 kts | 6° |
| 2026-05-07 19:28 | -26.13044 | 28.23467 | 5555 ft | 4 kts | 6° |
| 2026-05-07 19:28 | -26.13065 | 28.23464 | 5556 ft | 4 kts | 6° |
| 2026-05-07 19:29 | -26.13091 | 28.23460 | 5555 ft | 4 kts | 14° |
| 2026-05-07 19:29 | -26.13110 | 28.23451 | 5557 ft | 4 kts | 45° |
| 2026-05-07 19:29 | -26.13112 | 28.23459 | 5555 ft | 4 kts | 91° |
| 2026-05-07 19:29 | -26.13115 | 28.23485 | 5556 ft | 2 kts | 97° |
| 2026-05-07 19:30 | -26.13115 | 28.23484 | 5554 ft | 0 kts | 96° |
| 2026-05-07 19:35 | -26.13116 | 28.23490 | 5554 ft | 2 kts | 96° |
| 2026-05-07 19:36 | -26.13118 | 28.23515 | 5554 ft | 4 kts | 96° |
| 2026-05-07 19:36 | -26.13122 | 28.23553 | 5555 ft | 6 kts | 96° |
| 2026-05-07 19:36 | -26.13128 | 28.23605 | 5554 ft | 7 kts | 96° |
| 2026-05-07 19:36 | -26.13131 | 28.23662 | 5553 ft | 9 kts | 82° |
| 2026-05-07 19:37 | -26.13081 | 28.23716 | 5555 ft | 13 kts | 19° |
| 2026-05-07 19:37 | -26.12987 | 28.23747 | 5557 ft | 16 kts | 15° |
| 2026-05-07 19:37 | -26.12876 | 28.23781 | 5555 ft | 16 kts | 15° |
| 2026-05-07 19:37 | -26.12770 | 28.23814 | 5554 ft | 15 kts | 15° |
| 2026-05-07 19:38 | -26.12668 | 28.23846 | 5557 ft | 16 kts | 15° |
| 2026-05-07 19:38 | -26.12551 | 28.23881 | 5552 ft | 18 kts | 15° |
| 2026-05-07 19:38 | -26.12431 | 28.23918 | 5552 ft | 18 kts | 15° |
| 2026-05-07 19:38 | -26.12309 | 28.23955 | 5549 ft | 18 kts | 15° |
| 2026-05-07 19:39 | -26.12227 | 28.23981 | 5549 ft | 19 kts | 15° |
| 2026-05-07 19:39 | -26.12051 | 28.24036 | 5544 ft | 22 kts | 15° |
| 2026-05-07 19:39 | -26.11900 | 28.24083 | 5539 ft | 24 kts | 15° |
| 2026-05-07 19:39 | -26.11792 | 28.24117 | 5534 ft | 25 kts | 15° |
| 2026-05-07 19:40 | -26.11629 | 28.24168 | 5534 ft | 24 kts | 15° |
| 2026-05-07 19:40 | -26.11465 | 28.24217 | 5532 ft | 24 kts | 15° |
| 2026-05-07 19:40 | -26.11309 | 28.24264 | 5531 ft | 22 kts | 15° |
| 2026-05-07 19:40 | -26.11152 | 28.24313 | 5527 ft | 25 kts | 15° |
| 2026-05-07 19:41 | -26.10941 | 28.24378 | 5521 ft | 23 kts | 11° |
| 2026-05-07 19:41 | -26.10836 | 28.24397 | 5521 ft | 19 kts | 15° |
| 2026-05-07 19:41 | -26.10782 | 28.24461 | 5516 ft | 6 kts | 87° |
| 2026-05-07 19:41 | -26.10782 | 28.24467 | 5516 ft | 1 kts | 90° |
| 2026-05-07 19:42 | -26.10783 | 28.24482 | 5516 ft | 3 kts | 94° |
| 2026-05-07 19:42 | -26.10788 | 28.24514 | 5516 ft | 5 kts | 102° |
| 2026-05-07 19:42 | -26.10798 | 28.24556 | 5516 ft | 6 kts | 105° |
| 2026-05-07 19:42 | -26.10814 | 28.24597 | 5516 ft | 6 kts | 142° |
| 2026-05-07 19:43 | -26.10859 | 28.24602 | 5516 ft | 7 kts | 188° |
| 2026-05-07 19:43 | -26.10897 | 28.24595 | 5516 ft | 0 kts | 195° |
| 2026-05-07 19:43 | -26.10899 | 28.24594 | 5516 ft | 2 kts | 195° |
| 2026-05-07 19:43 | -26.11029 | 28.24554 | 5522 ft | 46 kts | 195° |
| 2026-05-07 19:44 | -26.11522 | 28.24402 | 5535 ft | 100 kts | 195° |
| 2026-05-07 19:44 | -26.12363 | 28.24142 | 5546 ft | 149 kts | 195° |
| 2026-05-07 19:44 | -26.13508 | 28.23789 | 5564 ft | 191 kts | 195° |
| 2026-05-07 19:44 | -26.14904 | 28.23361 | 5618 ft | 222 kts | 195° |
| 2026-05-07 19:45 | -26.16453 | 28.22885 | 5921 ft | 239 kts | 195° |
| 2026-05-07 19:45 | -26.18118 | 28.22360 | 6285 ft | 259 kts | 196° |
| 2026-05-07 19:45 | -26.19922 | 28.21782 | 6570 ft | 283 kts | 196° |
| 2026-05-07 19:45 | -26.21900 | 28.21151 | 6776 ft | 309 kts | 195° |
| 2026-05-07 19:46 | -26.24044 | 28.20471 | 7131 ft | 330 kts | 195° |
| 2026-05-07 19:46 | -26.26220 | 28.19786 | 7897 ft | 311 kts | 196° |
| 2026-05-07 19:46 | -26.28212 | 28.19110 | 8176 ft | 293 kts | 204° |
| 2026-05-07 19:46 | -26.29829 | 28.17726 | 8161 ft | 304 kts | 239° |
| 2026-05-07 19:47 | -26.30423 | 28.15473 | 8707 ft | 306 kts | 268° |
| 2026-05-07 19:47 | -26.30166 | 28.13149 | 9538 ft | 301 kts | 286° |
| 2026-05-07 19:47 | -26.29190 | 28.11088 | 10249 ft | 301 kts | 310° |
| 2026-05-07 19:47 | -26.27548 | 28.09638 | 10837 ft | 305 kts | 326° |
| 2026-05-07 19:48 | -26.25724 | 28.08351 | 11139 ft | 316 kts | 324° |
| 2026-05-07 19:48 | -26.23838 | 28.06998 | 11379 ft | 329 kts | 325° |
| 2026-05-07 19:48 | -26.21872 | 28.05599 | 11613 ft | 342 kts | 325° |
| 2026-05-07 19:48 | -26.19828 | 28.04148 | 11858 ft | 354 kts | 325° |
| 2026-05-07 19:49 | -26.17716 | 28.02649 | 12083 ft | 367 kts | 325° |
| 2026-05-07 19:49 | -26.15526 | 28.01096 | 12324 ft | 378 kts | 325° |
| 2026-05-07 19:49 | -26.13277 | 27.99504 | 12738 ft | 384 kts | 325° |
| 2026-05-07 19:49 | -26.11017 | 27.97905 | 13321 ft | 385 kts | 325° |
| 2026-05-07 19:50 | -26.08746 | 27.96299 | 13876 ft | 387 kts | 325° |
| 2026-05-07 19:50 | -26.06464 | 27.94686 | 14403 ft | 390 kts | 325° |
| 2026-05-07 19:50 | -26.04170 | 27.93063 | 14919 ft | 392 kts | 325° |
| 2026-05-07 19:50 | -26.01857 | 27.91429 | 15429 ft | 394 kts | 325° |
| 2026-05-07 19:51 | -25.99524 | 27.89780 | 15900 ft | 397 kts | 325° |
| 2026-05-07 19:51 | -25.97185 | 27.88129 | 16408 ft | 399 kts | 325° |
| 2026-05-07 19:51 | -25.94835 | 27.86470 | 16868 ft | 402 kts | 325° |
| 2026-05-07 19:51 | -25.92469 | 27.84801 | 17342 ft | 404 kts | 325° |
| 2026-05-07 19:52 | -25.90090 | 27.83124 | 17805 ft | 406 kts | 325° |
| 2026-05-07 19:52 | -25.87696 | 27.81437 | 18239 ft | 408 kts | 325° |
| 2026-05-07 19:52 | -25.85293 | 27.79744 | 18663 ft | 411 kts | 325° |
| 2026-05-07 19:52 | -25.82871 | 27.78039 | 19080 ft | 413 kts | 325° |
| 2026-05-07 19:53 | -25.80440 | 27.76328 | 19494 ft | 415 kts | 325° |
| 2026-05-07 19:53 | -25.77992 | 27.74607 | 19895 ft | 417 kts | 325° |
| 2026-05-07 19:53 | -25.75536 | 27.72880 | 20276 ft | 419 kts | 325° |
| 2026-05-07 19:53 | -25.73063 | 27.71142 | 20665 ft | 421 kts | 325° |
| 2026-05-07 19:54 | -25.70582 | 27.69400 | 21034 ft | 423 kts | 325° |
| 2026-05-07 19:54 | -25.68084 | 27.67645 | 21394 ft | 426 kts | 325° |
| 2026-05-07 19:54 | -25.65575 | 27.65884 | 21748 ft | 428 kts | 325° |
| 2026-05-07 19:54 | -25.63088 | 27.64140 | 22097 ft | 430 kts | 325° |
| 2026-05-07 19:55 | -25.60551 | 27.62362 | 22431 ft | 432 kts | 325° |
| 2026-05-07 19:55 | -25.58005 | 27.60577 | 22769 ft | 434 kts | 325° |
| 2026-05-07 19:55 | -25.55449 | 27.58788 | 23088 ft | 436 kts | 325° |
| 2026-05-07 19:55 | -25.52878 | 27.56988 | 23407 ft | 438 kts | 325° |
| 2026-05-07 19:56 | -25.50300 | 27.55185 | 23729 ft | 439 kts | 325° |
| 2026-05-07 19:56 | -25.47705 | 27.53370 | 24015 ft | 442 kts | 325° |
| 2026-05-07 19:56 | -25.45101 | 27.51551 | 24297 ft | 444 kts | 325° |
| 2026-05-07 19:56 | -25.42484 | 27.49723 | 24580 ft | 445 kts | 325° |
| 2026-05-07 19:57 | -25.39861 | 27.47892 | 24881 ft | 447 kts | 325° |
| 2026-05-07 19:57 | -25.37223 | 27.46051 | 25169 ft | 449 kts | 325° |
| 2026-05-07 19:57 | -25.34579 | 27.44207 | 25453 ft | 450 kts | 325° |
| 2026-05-07 19:57 | -25.31919 | 27.42354 | 25732 ft | 452 kts | 325° |
| 2026-05-07 19:58 | -25.29255 | 27.40498 | 26010 ft | 454 kts | 325° |
| 2026-05-07 19:58 | -25.26580 | 27.38635 | 26281 ft | 455 kts | 325° |
| 2026-05-07 19:58 | -25.23895 | 27.36766 | 26546 ft | 457 kts | 325° |
| 2026-05-07 19:58 | -25.21203 | 27.34894 | 26806 ft | 458 kts | 325° |
| 2026-05-07 19:59 | -25.18496 | 27.33013 | 27059 ft | 460 kts | 324° |
| 2026-05-07 19:59 | -25.15781 | 27.31127 | 27309 ft | 462 kts | 324° |
| 2026-05-07 19:59 | -25.13054 | 27.29233 | 27561 ft | 463 kts | 324° |
| 2026-05-07 19:59 | -25.10320 | 27.27336 | 27813 ft | 465 kts | 324° |
| 2026-05-07 20:00 | -25.07577 | 27.25433 | 28097 ft | 465 kts | 324° |
| 2026-05-07 20:00 | -25.04842 | 27.23537 | 28463 ft | 464 kts | 324° |
| 2026-05-07 20:00 | -25.02110 | 27.21645 | 28836 ft | 462 kts | 324° |
| 2026-05-07 20:00 | -24.99393 | 27.19764 | 29195 ft | 461 kts | 324° |
| 2026-05-07 20:01 | -24.96681 | 27.17888 | 29547 ft | 460 kts | 324° |
| 2026-05-07 20:01 | -24.93976 | 27.16017 | 29894 ft | 459 kts | 324° |
| 2026-05-07 20:01 | -24.91272 | 27.14148 | 30227 ft | 457 kts | 324° |
| 2026-05-07 20:01 | -24.88578 | 27.12286 | 30540 ft | 457 kts | 324° |
| 2026-05-07 20:02 | -24.85883 | 27.10425 | 30808 ft | 457 kts | 324° |
| 2026-05-07 20:02 | -24.83188 | 27.08564 | 31018 ft | 458 kts | 324° |
| 2026-05-07 20:02 | -24.80480 | 27.06694 | 31226 ft | 459 kts | 324° |
| 2026-05-07 20:02 | -24.77771 | 27.04825 | 31443 ft | 460 kts | 324° |
| 2026-05-07 20:03 | -24.75055 | 27.02954 | 31647 ft | 461 kts | 324° |
| 2026-05-07 20:03 | -24.72336 | 27.01081 | 31879 ft | 461 kts | 324° |
| 2026-05-07 20:03 | -24.69619 | 26.99211 | 32085 ft | 462 kts | 324° |
| 2026-05-07 20:03 | -24.66888 | 26.97331 | 32165 ft | 463 kts | 324° |
| 2026-05-07 20:04 | -24.61425 | 26.93576 | 32175 ft | 463 kts | 324° |
| 2026-05-07 20:04 | -24.55953 | 26.89817 | 32177 ft | 464 kts | 324° |
| 2026-05-07 20:05 | -24.50518 | 26.86089 | 32170 ft | 464 kts | 324° |
| 2026-05-07 20:05 | -24.45040 | 26.82336 | 32165 ft | 464 kts | 324° |
| 2026-05-07 20:06 | -24.39560 | 26.78586 | 32162 ft | 464 kts | 324° |
| 2026-05-07 20:06 | -24.34057 | 26.74875 | 32160 ft | 465 kts | 327° |
| 2026-05-07 20:07 | -24.28278 | 26.71633 | 32160 ft | 468 kts | 332° |
| 2026-05-07 20:07 | -24.22288 | 26.68790 | 32160 ft | 469 kts | 333° |
| 2026-05-07 20:08 | -24.16293 | 26.65957 | 32151 ft | 469 kts | 333° |
| 2026-05-07 20:08 | -24.10299 | 26.63129 | 32150 ft | 469 kts | 333° |
| 2026-05-07 20:09 | -24.04302 | 26.60303 | 32154 ft | 469 kts | 333° |
| 2026-05-07 20:10 | -23.95290 | 26.56062 | 32148 ft | 470 kts | 333° |
| 2026-05-07 20:10 | -23.89276 | 26.53235 | 32149 ft | 470 kts | 333° |
| 2026-05-07 20:11 | -23.83263 | 26.50414 | 32149 ft | 470 kts | 333° |
| 2026-05-07 20:11 | -23.77246 | 26.47595 | 32151 ft | 470 kts | 333° |
| 2026-05-07 20:12 | -23.71232 | 26.44778 | 32150 ft | 470 kts | 333° |
| 2026-05-07 20:12 | -23.65224 | 26.41946 | 32149 ft | 470 kts | 333° |
| 2026-05-07 20:13 | -23.59216 | 26.39111 | 32152 ft | 470 kts | 333° |
| 2026-05-07 20:13 | -23.53210 | 26.36282 | 32149 ft | 470 kts | 333° |
| 2026-05-07 20:14 | -23.47199 | 26.33455 | 32149 ft | 470 kts | 333° |
| 2026-05-07 20:14 | -23.41188 | 26.30631 | 32151 ft | 471 kts | 333° |
| 2026-05-07 20:15 | -23.35167 | 26.27806 | 32152 ft | 471 kts | 333° |
| 2026-05-07 20:15 | -23.29146 | 26.24983 | 32149 ft | 471 kts | 333° |
| 2026-05-07 20:16 | -23.23120 | 26.22160 | 32152 ft | 471 kts | 333° |
| 2026-05-07 20:16 | -23.17094 | 26.19340 | 32151 ft | 471 kts | 333° |
| 2026-05-07 20:17 | -23.11108 | 26.16543 | 32151 ft | 472 kts | 333° |
| 2026-05-07 20:17 | -23.05079 | 26.13728 | 32149 ft | 472 kts | 333° |
| 2026-05-07 20:18 | -22.99021 | 26.10902 | 32195 ft | 475 kts | 333° |
| 2026-05-07 20:18 | -22.95985 | 26.09487 | 32443 ft | 474 kts | 333° |
| 2026-05-07 20:18 | -22.92960 | 26.08078 | 32753 ft | 472 kts | 333° |
| 2026-05-07 20:18 | -22.89942 | 26.06674 | 33034 ft | 471 kts | 333° |
| 2026-05-07 20:19 | -22.86931 | 26.05274 | 33286 ft | 470 kts | 333° |
| 2026-05-07 20:19 | -22.83929 | 26.03877 | 33499 ft | 470 kts | 333° |